createdAt,value
2023-04-15T00:00:59.820Z,11.20
2023-04-15T00:03:30.149Z,11.20
2023-04-15T00:05:58.943Z,11.20
2023-04-15T00:08:27.348Z,11.20
2023-04-15T00:10:55.737Z,11.30
2023-04-15T00:13:24.225Z,11.30
2023-04-15T00:15:52.717Z,11.30
2023-04-15T00:18:21.095Z,11.30
2023-04-15T00:20:50.887Z,11.20
2023-04-15T00:23:19.319Z,11.20
2023-04-15T00:25:48.008Z,11.20
2023-04-15T00:28:16.474Z,11.20
2023-04-15T00:30:44.980Z,11.20
2023-04-15T00:33:13.965Z,11.20
2023-04-15T00:35:42.390Z,11.20
2023-04-15T00:38:12.463Z,11.20
2023-04-15T00:40:41.383Z,11.10
2023-04-15T00:43:09.937Z,11.20
2023-04-15T00:45:38.452Z,11.20
2023-04-15T00:48:07.143Z,11.20
2023-04-15T00:50:35.687Z,11.30
2023-04-15T00:53:04.105Z,11.20
2023-04-15T00:55:33.942Z,11.30
2023-04-15T00:58:02.366Z,11.30
2023-04-15T01:00:31.307Z,11.20
2023-04-15T01:02:59.952Z,11.30
2023-04-15T01:05:28.970Z,11.30
2023-04-15T01:07:57.426Z,11.30
2023-04-15T01:10:25.829Z,11.30
2023-04-15T01:12:55.732Z,11.30
2023-04-15T01:15:24.143Z,11.30
2023-04-15T01:17:52.861Z,11.30
2023-04-15T01:20:22.264Z,11.30
2023-04-15T01:22:51.062Z,11.30
2023-04-15T01:25:20.702Z,11.30
2023-04-15T01:27:50.505Z,11.30
2023-04-15T01:30:18.956Z,11.30
2023-04-15T01:32:47.567Z,11.30
2023-04-15T01:35:16.014Z,11.30
2023-04-15T01:37:44.546Z,11.40
2023-04-15T01:40:13.924Z,11.40
2023-04-15T01:42:42.315Z,11.40
2023-04-15T01:45:12.694Z,11.50
2023-04-15T01:47:41.176Z,11.50
2023-04-15T01:50:09.949Z,11.50
2023-04-15T01:52:38.378Z,11.50
2023-04-15T01:55:08.159Z,11.60
2023-04-15T01:57:37.061Z,11.50
2023-04-15T02:00:07.760Z,11.50
2023-04-15T02:02:38.134Z,11.50
2023-04-15T02:05:07.068Z,11.50
2023-04-15T02:07:35.798Z,11.60
2023-04-15T02:10:04.637Z,11.60
2023-04-15T02:12:33.055Z,11.70
2023-04-15T02:15:01.431Z,11.60
2023-04-15T02:17:29.851Z,11.60
2023-04-15T02:19:59.753Z,11.60
2023-04-15T02:22:28.227Z,11.70
2023-04-15T02:24:56.619Z,11.70
2023-04-15T02:27:25.042Z,11.70
2023-04-15T02:29:53.437Z,11.70
2023-04-15T02:32:24.463Z,11.70
2023-04-15T02:34:53.203Z,11.70
2023-04-15T02:37:23.291Z,11.70
2023-04-15T02:39:51.650Z,11.60
2023-04-15T02:42:21.731Z,11.60
2023-04-15T02:44:50.127Z,11.60
2023-04-15T02:47:18.636Z,11.60
2023-04-15T02:49:47.053Z,11.70
2023-04-15T02:52:15.968Z,11.70
2023-04-15T02:54:45.809Z,11.60
2023-04-15T02:57:14.244Z,11.70
2023-04-15T02:59:42.629Z,11.70
2023-04-15T03:02:11.382Z,11.70
2023-04-15T03:04:39.947Z,11.70
2023-04-15T03:07:08.509Z,11.70
2023-04-15T03:09:36.924Z,11.70
2023-04-15T03:12:06.732Z,11.70
2023-04-15T03:14:35.117Z,11.70
2023-04-15T03:17:03.566Z,11.70
2023-04-15T03:19:31.996Z,11.70
2023-04-15T03:22:00.432Z,11.70
2023-04-15T03:24:29.801Z,11.70
2023-04-15T03:26:58.202Z,11.80
2023-04-15T03:29:28.048Z,11.70
2023-04-15T03:31:56.424Z,11.70
2023-04-15T03:34:24.811Z,11.70
2023-04-15T03:36:53.398Z,11.70
2023-04-15T03:39:21.764Z,11.70
2023-04-15T03:41:50.282Z,11.70
2023-04-15T03:44:18.727Z,11.70
2023-04-15T03:46:48.577Z,11.70
2023-04-15T03:49:17.010Z,11.70
2023-04-15T03:51:45.406Z,11.70
2023-04-15T03:54:15.321Z,11.70
2023-04-15T03:56:43.759Z,11.70
2023-04-15T03:59:12.231Z,11.60
2023-04-15T04:01:40.655Z,11.60
2023-04-15T04:04:11.019Z,11.60
2023-04-15T04:06:39.663Z,11.60
2023-04-15T04:09:08.109Z,11.60
2023-04-15T04:11:37.587Z,11.60
2023-04-15T04:14:06.231Z,11.60
2023-04-15T04:16:34.694Z,11.60
2023-04-15T04:19:03.295Z,11.60
2023-04-15T04:21:34.234Z,11.60
2023-04-15T04:24:02.587Z,11.60
2023-04-15T04:26:31.245Z,11.50
2023-04-15T04:28:59.886Z,11.50
2023-04-15T04:31:28.491Z,11.60
2023-04-15T04:33:56.868Z,11.60
2023-04-15T04:36:25.236Z,11.70
2023-04-15T04:38:55.008Z,11.70
2023-04-15T04:41:23.462Z,11.60
2023-04-15T04:43:52.020Z,11.60
2023-04-15T04:46:20.731Z,11.60
2023-04-15T04:48:49.227Z,11.60
2023-04-15T04:51:17.758Z,11.70
2023-04-15T04:53:46.205Z,11.70
2023-04-15T04:56:16.145Z,11.80
2023-04-15T04:58:44.607Z,11.80
2023-04-15T05:01:13.200Z,11.90
2023-04-15T05:03:41.886Z,11.90
2023-04-15T05:06:10.795Z,12.00
2023-04-15T05:08:40.401Z,12.00
2023-04-15T05:11:09.110Z,12.00
2023-04-15T05:13:39.074Z,12.10
2023-04-15T05:16:07.608Z,12.00
2023-04-15T05:18:36.815Z,12.10
2023-04-15T05:21:05.563Z,12.10
2023-04-15T05:23:33.846Z,12.10
2023-04-15T05:26:02.254Z,12.20
2023-04-15T05:28:31.056Z,12.30
2023-04-15T05:31:00.873Z,12.30
2023-04-15T05:33:29.312Z,12.40
2023-04-15T05:35:57.779Z,12.50
2023-04-15T05:38:26.225Z,12.50
2023-04-15T05:40:54.674Z,12.60
2023-04-15T05:43:23.161Z,12.60
2023-04-15T05:45:51.590Z,12.70
2023-04-15T05:48:21.440Z,12.70
2023-04-15T05:50:49.882Z,12.70
2023-04-15T05:53:18.210Z,12.80
2023-04-15T05:55:46.876Z,12.80
2023-04-15T05:58:15.247Z,12.80
2023-04-15T06:00:43.981Z,12.80
2023-04-15T06:03:13.249Z,12.90
2023-04-15T06:05:45.058Z,13.00
2023-04-15T06:08:13.477Z,13.20
2023-04-15T06:10:41.931Z,13.30
2023-04-15T06:13:10.393Z,13.30
2023-04-15T06:15:38.879Z,13.40
2023-04-15T06:18:07.214Z,13.50
2023-04-15T06:20:36.831Z,13.50
2023-04-15T06:23:06.800Z,13.50
2023-04-15T06:25:35.214Z,13.60
2023-04-15T06:28:03.763Z,13.60
2023-04-15T06:30:32.199Z,13.60
2023-04-15T06:33:00.735Z,13.60
2023-04-15T06:35:29.220Z,13.60
2023-04-15T06:37:57.715Z,13.70
2023-04-15T06:40:27.877Z,13.80
2023-04-15T06:42:56.340Z,14.10
2023-04-15T06:45:24.790Z,14.20
2023-04-15T06:47:53.225Z,14.20
2023-04-15T06:50:21.768Z,14.20
2023-04-15T06:52:50.228Z,14.30
2023-04-15T06:55:18.593Z,14.30
2023-04-15T06:57:48.411Z,14.40
2023-04-15T07:00:17.604Z,14.50
2023-04-15T07:02:46.742Z,14.50
2023-04-15T07:05:15.378Z,14.60
2023-04-15T07:07:43.828Z,14.70
2023-04-15T07:10:13.089Z,14.80
2023-04-15T07:12:41.569Z,14.90
2023-04-15T07:15:12.168Z,15.10
2023-04-15T07:17:41.599Z,15.20
2023-04-15T07:20:10.358Z,15.30
2023-04-15T07:22:38.815Z,15.40
2023-04-15T07:25:07.898Z,15.50
2023-04-15T07:27:36.421Z,15.60
2023-04-15T07:30:05.140Z,15.80
2023-04-15T07:32:34.982Z,15.90
2023-04-15T07:35:03.843Z,16.00
2023-04-15T07:37:32.292Z,16.20
2023-04-15T07:40:00.692Z,16.40
2023-04-15T07:42:29.366Z,16.50
2023-04-15T07:44:57.969Z,16.50
2023-04-15T07:47:27.232Z,16.60
2023-04-15T07:49:57.564Z,16.50
2023-04-15T07:52:26.084Z,16.60
2023-04-15T07:54:54.495Z,16.60
2023-04-15T07:57:23.050Z,16.50
2023-04-15T07:59:51.462Z,16.50
2023-04-15T08:02:20.073Z,16.40
2023-04-15T08:04:48.817Z,16.40
2023-04-15T08:07:18.718Z,16.20
2023-04-15T08:09:47.600Z,16.00
2023-04-15T08:12:16.074Z,15.80
2023-04-15T08:14:44.469Z,15.60
2023-04-15T08:17:12.944Z,15.60
2023-04-15T08:19:42.509Z,15.40
2023-04-15T08:22:18.025Z,15.30
2023-04-15T08:24:48.480Z,15.20
2023-04-15T08:27:16.948Z,15.20
2023-04-15T08:29:45.735Z,15.10
2023-04-15T08:32:14.188Z,15.10
2023-04-15T08:34:42.602Z,15.00
2023-04-15T08:37:11.551Z,15.00
2023-04-15T08:39:41.134Z,14.90
2023-04-15T08:42:12.886Z,14.90
2023-04-15T08:44:41.798Z,14.90
2023-04-15T08:47:10.458Z,14.80
2023-04-15T08:49:40.799Z,14.70
2023-04-15T08:52:09.955Z,14.70
2023-04-15T08:54:38.921Z,14.90
2023-04-15T08:57:08.051Z,14.70
2023-04-15T08:59:37.890Z,14.80
2023-04-15T09:02:06.792Z,14.70
2023-04-15T09:04:35.456Z,14.70
2023-04-15T09:07:04.865Z,14.60
2023-04-15T09:09:33.270Z,14.70
2023-04-15T09:12:02.998Z,14.60
2023-04-15T09:14:32.273Z,14.60
2023-04-15T09:17:03.437Z,14.60
2023-04-15T09:19:33.654Z,14.50
2023-04-15T09:22:03.206Z,14.50
2023-04-15T09:24:37.495Z,14.50
2023-04-15T09:27:06.316Z,14.50
2023-04-15T09:29:34.814Z,14.50
2023-04-15T09:32:14.737Z,14.50
2023-04-15T09:34:44.617Z,14.50
2023-04-15T09:37:28.610Z,14.50
2023-04-15T09:40:00.656Z,14.60
2023-04-15T09:42:29.075Z,14.60
2023-04-15T09:44:57.503Z,14.60
2023-04-15T09:47:30.564Z,14.60
2023-04-15T09:49:59.311Z,14.70
2023-04-15T09:52:28.787Z,14.70
2023-04-15T09:54:58.744Z,14.90
2023-04-15T09:57:34.675Z,14.90
2023-04-15T10:00:03.140Z,14.90
2023-04-15T10:02:33.216Z,14.90
2023-04-15T10:05:02.586Z,14.90
2023-04-15T10:07:31.159Z,15.00
2023-04-15T10:10:00.208Z,15.10
2023-04-15T10:12:28.889Z,15.20
2023-04-15T10:14:58.570Z,15.30
2023-04-15T10:17:30.506Z,15.30
2023-04-15T10:20:01.983Z,15.30
2023-04-15T10:22:30.991Z,15.50
2023-04-15T10:25:00.087Z,15.50
2023-04-15T10:27:29.182Z,15.60
2023-04-15T10:29:57.971Z,15.60
2023-04-15T10:32:26.458Z,15.70
2023-04-15T10:34:55.629Z,15.70
2023-04-15T10:37:34.937Z,15.70
2023-04-15T10:40:23.339Z,15.70
2023-04-15T10:42:51.860Z,15.80
2023-04-15T10:45:20.303Z,15.90
2023-04-15T10:47:53.181Z,15.90
2023-04-15T10:50:22.468Z,16.00
2023-04-15T10:52:53.596Z,16.10
2023-04-15T10:55:22.995Z,16.20
2023-04-15T10:57:53.350Z,16.20
2023-04-15T11:00:22.903Z,16.20
2023-04-15T11:02:53.881Z,16.00
2023-04-15T11:05:23.518Z,16.00
2023-04-15T11:07:54.598Z,16.00
2023-04-15T11:10:56.048Z,15.90
2023-04-15T11:13:27.205Z,15.90
2023-04-15T11:16:00.346Z,16.00
2023-04-15T11:18:30.466Z,16.10
2023-04-15T11:21:00.206Z,16.20
2023-04-15T11:23:31.564Z,16.30
2023-04-15T11:26:00.627Z,16.40
2023-04-15T11:28:29.728Z,16.60
2023-04-15T11:30:58.237Z,16.70
2023-04-15T11:33:27.136Z,16.80
2023-04-15T11:35:55.935Z,16.80
2023-04-15T11:38:24.709Z,16.80
2023-04-15T11:40:54.589Z,16.70
2023-04-15T11:43:23.923Z,16.70
2023-04-15T11:45:53.902Z,16.70
2023-04-15T11:48:23.697Z,16.70
2023-04-15T11:50:55.619Z,16.70
2023-04-15T11:53:24.663Z,16.60
2023-04-15T11:55:55.118Z,16.50
2023-04-15T11:58:24.586Z,16.40
2023-04-15T12:00:54.215Z,16.40
2023-04-15T12:03:23.907Z,16.50
2023-04-15T12:06:05.260Z,16.40
2023-04-15T12:08:52.727Z,16.40
2023-04-15T12:11:22.873Z,16.40
2023-04-15T12:13:51.890Z,16.40
2023-04-15T12:16:20.783Z,16.50
2023-04-15T12:18:49.340Z,16.50
2023-04-15T12:21:20.434Z,16.60
2023-04-15T12:23:52.302Z,16.60
2023-04-15T12:26:27.478Z,16.70
2023-04-15T12:28:56.402Z,16.70
2023-04-15T12:31:25.203Z,16.70
2023-04-15T12:33:56.176Z,16.70
2023-04-15T12:36:24.997Z,16.70
2023-04-15T12:38:53.414Z,16.60
2023-04-15T12:41:24.438Z,16.50
2023-04-15T12:43:52.948Z,16.40
2023-04-15T12:46:21.755Z,16.30
2023-04-15T12:48:50.196Z,16.30
2023-04-15T12:51:18.620Z,16.20
2023-04-15T12:53:47.808Z,16.20
2023-04-15T12:56:16.774Z,16.30
2023-04-15T12:58:46.555Z,16.30
2023-04-15T13:01:15.050Z,16.30
2023-04-15T13:03:43.582Z,16.30
2023-04-15T13:06:12.147Z,16.20
2023-04-15T13:08:45.212Z,16.20
2023-04-15T13:11:20.249Z,16.10
2023-04-15T13:13:50.006Z,16.10
2023-04-15T13:16:18.509Z,16.10
2023-04-15T13:18:47.220Z,16.20
2023-04-15T13:21:15.672Z,16.20
2023-04-15T13:23:44.090Z,16.20
2023-04-15T13:26:13.052Z,16.20
2023-04-15T13:28:41.414Z,16.10
2023-04-15T13:31:11.437Z,16.10
2023-04-15T13:33:39.887Z,16.10
2023-04-15T13:36:08.420Z,16.10
2023-04-15T13:38:36.784Z,16.10
2023-04-15T13:41:05.304Z,16.10
2023-04-15T13:43:34.359Z,16.00
2023-04-15T13:46:02.814Z,15.90
2023-04-15T13:48:32.772Z,15.90
2023-04-15T13:51:01.135Z,15.90
2023-04-15T13:53:37.735Z,15.90
2023-04-15T13:56:07.895Z,15.80
2023-04-15T13:58:36.721Z,15.80
2023-04-15T14:01:06.804Z,15.80
2023-04-15T14:03:37.369Z,15.80
2023-04-15T14:06:06.220Z,15.70
2023-04-15T14:08:34.629Z,15.60
2023-04-15T14:11:03.121Z,15.60
2023-04-15T14:13:31.496Z,15.50
2023-04-15T14:15:59.869Z,15.60
2023-04-15T14:18:28.489Z,15.60
2023-04-15T14:20:58.405Z,15.60
2023-04-15T14:23:26.933Z,15.60
2023-04-15T14:25:55.422Z,15.60
2023-04-15T14:28:23.901Z,15.60
2023-04-15T14:30:52.378Z,15.50
2023-04-15T14:33:20.827Z,15.60
2023-04-15T14:35:50.643Z,15.60
2023-04-15T14:38:22.727Z,15.60
2023-04-15T14:40:51.302Z,15.50
2023-04-15T14:43:19.630Z,15.60
2023-04-15T14:45:48.203Z,15.60
2023-04-15T14:48:17.145Z,15.60
2023-04-15T14:50:45.658Z,15.60
2023-04-15T14:53:14.144Z,15.50
2023-04-15T14:55:44.147Z,15.60
2023-04-15T14:58:12.688Z,15.60
2023-04-15T15:00:44.541Z,15.50
2023-04-15T15:03:14.037Z,15.70
2023-04-15T15:05:43.210Z,15.70
2023-04-15T15:08:12.169Z,15.70
2023-04-15T15:10:46.594Z,15.70
2023-04-15T15:13:20.116Z,15.70
2023-04-15T15:15:49.556Z,15.70
2023-04-15T15:18:19.088Z,15.60
2023-04-15T15:20:48.130Z,15.70
2023-04-15T15:23:16.643Z,15.70
2023-04-15T15:25:45.585Z,15.70
2023-04-15T15:28:14.068Z,15.70
2023-04-15T15:30:43.822Z,15.70
2023-04-15T15:33:12.298Z,15.80
2023-04-15T15:35:41.075Z,15.70
2023-04-15T15:38:12.128Z,15.70
2023-04-15T15:40:40.730Z,15.80
2023-04-15T15:43:09.168Z,15.80
2023-04-15T15:45:37.576Z,15.70
2023-04-15T15:48:07.813Z,15.70
2023-04-15T15:50:36.388Z,15.70
2023-04-15T15:53:04.749Z,15.70
2023-04-15T15:55:33.183Z,15.60
2023-04-15T15:58:01.632Z,15.60
2023-04-15T16:00:30.022Z,15.60
2023-04-15T16:05:31.335Z,15.50
2023-04-15T16:07:59.658Z,15.50
2023-04-15T16:10:28.111Z,15.50
2023-04-15T16:12:56.768Z,15.50
2023-04-15T16:15:26.613Z,15.40
2023-04-15T16:17:55.029Z,15.40
2023-04-15T16:20:23.543Z,15.40
2023-04-15T16:22:53.535Z,15.50
2023-04-15T16:25:22.017Z,15.50
2023-04-15T16:28:00.906Z,15.50
2023-04-15T16:30:31.804Z,15.50
2023-04-15T16:33:00.434Z,15.50
2023-04-15T16:35:28.958Z,15.40
2023-04-15T16:37:58.770Z,15.50
2023-04-15T16:40:27.165Z,15.50
2023-04-15T16:42:56.232Z,15.40
2023-04-15T16:45:24.584Z,15.40
2023-04-15T16:47:53.042Z,15.40
2023-04-15T16:50:21.490Z,15.40
2023-04-15T16:52:50.206Z,15.40
2023-04-15T16:55:20.235Z,15.30
2023-04-15T16:58:01.088Z,15.30
2023-04-15T17:00:33.061Z,15.30
2023-04-15T17:03:01.855Z,15.30
2023-04-15T17:05:32.193Z,15.30
2023-04-15T17:08:01.598Z,15.30
2023-04-15T17:10:31.711Z,15.30
2023-04-15T17:13:00.399Z,15.30
2023-04-15T17:15:29.161Z,15.20
2023-04-15T17:17:57.629Z,15.10
2023-04-15T17:20:26.591Z,15.10
2023-04-15T17:22:55.074Z,15.10
2023-04-15T17:25:24.179Z,15.00
2023-04-15T17:27:54.041Z,15.00
2023-04-15T17:30:22.488Z,14.90
2023-04-15T17:32:52.376Z,14.90
2023-04-15T17:35:20.927Z,14.90
2023-04-15T17:37:49.292Z,14.80
2023-04-15T17:40:17.698Z,14.70
2023-04-15T17:42:46.238Z,14.80
2023-04-15T17:45:16.094Z,14.70
2023-04-15T17:47:44.547Z,14.70
2023-04-15T17:50:13.245Z,14.60
2023-04-15T17:52:44.673Z,14.60
2023-04-15T17:55:13.142Z,14.50
2023-04-15T17:57:41.580Z,14.50
2023-04-15T18:00:10.691Z,14.40
2023-04-15T18:02:40.956Z,14.40
2023-04-15T18:05:10.430Z,14.30
2023-04-15T18:07:38.857Z,14.30
2023-04-15T18:10:08.276Z,14.30
2023-04-15T18:12:36.667Z,14.20
2023-04-15T18:15:05.820Z,14.20
2023-04-15T18:17:34.339Z,14.10
2023-04-15T18:20:04.208Z,14.10
2023-04-15T18:22:32.592Z,14.00
2023-04-15T18:25:04.300Z,14.00
2023-04-15T18:27:33.125Z,14.00
2023-04-15T18:30:01.527Z,14.00
2023-04-15T18:32:32.778Z,14.00
2023-04-15T18:35:01.614Z,13.90
2023-04-15T18:37:31.520Z,13.90
2023-04-15T18:40:00.153Z,13.90
2023-04-15T18:42:28.602Z,13.90
2023-04-15T18:44:57.034Z,13.80
2023-04-15T18:47:27.096Z,13.80
2023-04-15T18:49:55.725Z,13.80
2023-04-15T18:52:24.071Z,13.80
2023-04-15T18:54:53.866Z,13.60
2023-04-15T18:57:24.514Z,13.60
2023-04-15T18:59:59.411Z,13.50
2023-04-15T19:02:27.860Z,13.50
2023-04-15T19:04:56.289Z,13.50
2023-04-15T19:07:25.041Z,13.40
2023-04-15T19:09:55.563Z,13.40
2023-04-15T19:12:23.984Z,13.50
2023-04-15T19:14:52.439Z,13.40
2023-04-15T19:17:21.310Z,13.40
2023-04-15T19:19:49.783Z,13.40
2023-04-15T19:22:19.020Z,13.30
2023-04-15T19:24:47.609Z,13.30
2023-04-15T19:27:17.404Z,13.30
2023-04-15T19:29:45.820Z,13.40
2023-04-15T19:32:14.755Z,13.30
2023-04-15T19:34:43.172Z,13.30
2023-04-15T19:37:12.157Z,13.30
2023-04-15T19:39:40.621Z,13.20
2023-04-15T19:42:08.997Z,13.20
2023-04-15T19:44:42.838Z,13.20
2023-04-15T19:47:11.642Z,13.20
2023-04-15T19:49:40.104Z,13.10
2023-04-15T19:52:08.500Z,13.10
2023-04-15T19:54:37.165Z,13.00
2023-04-15T19:57:05.566Z,13.00
2023-04-15T19:59:34.028Z,12.90
2023-04-15T20:02:04.219Z,12.90
2023-04-15T20:04:32.947Z,12.90
2023-04-15T20:07:01.505Z,12.90
2023-04-15T20:09:29.913Z,12.80
2023-04-15T20:12:44.991Z,12.80
2023-04-15T20:14:46.674Z,12.80
2023-04-15T20:17:16.996Z,12.80
2023-04-15T20:19:45.626Z,12.70
2023-04-15T20:22:14.030Z,12.70
2023-04-15T20:24:42.480Z,12.70
2023-04-15T20:27:10.872Z,12.60
2023-04-15T20:29:39.328Z,12.60
2023-04-15T20:32:11.304Z,12.60
2023-04-15T20:34:41.294Z,12.50
2023-04-15T20:37:09.671Z,12.60
2023-04-15T20:39:38.170Z,12.50
2023-04-15T20:42:10.186Z,12.50
2023-04-15T20:44:38.647Z,12.50
2023-04-15T20:47:07.334Z,12.50
2023-04-15T20:49:35.995Z,12.50
2023-04-15T20:52:06.577Z,12.50
2023-04-15T20:54:35.138Z,12.50
2023-04-15T20:57:03.760Z,12.50
2023-04-15T20:59:32.900Z,12.50
2023-04-15T21:02:01.451Z,12.50
2023-04-15T21:04:30.144Z,12.50
2023-04-15T21:06:58.515Z,12.50
2023-04-15T21:09:28.463Z,12.50
2023-04-15T21:12:01.468Z,12.50
2023-04-15T21:14:30.576Z,12.50
2023-04-15T21:16:59.386Z,12.50
2023-04-15T21:19:27.767Z,12.50
2023-04-15T21:21:56.149Z,12.50
2023-04-15T21:24:24.588Z,12.60
2023-04-15T21:26:54.476Z,12.60
2023-04-15T21:29:22.869Z,12.60
2023-04-15T21:31:51.256Z,12.60
2023-04-15T21:34:19.730Z,12.60
2023-04-15T21:36:48.157Z,12.60
2023-04-15T21:39:17.136Z,12.60
2023-04-15T21:41:45.754Z,12.60
2023-04-15T21:44:15.700Z,12.50
2023-04-15T21:46:45.975Z,12.50
2023-04-15T21:49:14.676Z,12.40
2023-04-15T21:51:43.041Z,12.40
2023-04-15T21:54:11.495Z,12.30
2023-04-15T21:56:39.902Z,12.40
2023-04-15T21:59:08.368Z,12.30
2023-04-15T22:01:38.352Z,12.30
2023-04-15T22:04:07.653Z,12.40
2023-04-15T22:06:36.176Z,12.40
2023-04-15T22:09:04.657Z,12.30
2023-04-15T22:11:35.009Z,12.30
2023-04-15T22:14:03.489Z,12.30
2023-04-15T22:16:31.954Z,12.30
2023-04-15T22:19:02.709Z,12.30
2023-04-15T22:21:31.800Z,12.20
2023-04-15T22:24:34.404Z,12.20
2023-04-15T22:26:48.740Z,12.30
2023-04-15T22:29:17.238Z,12.20
2023-04-15T22:31:45.830Z,12.30
2023-04-15T22:34:21.246Z,12.20
2023-04-15T22:36:49.690Z,12.20
2023-04-15T22:39:18.647Z,12.20
2023-04-15T22:41:47.568Z,12.30
2023-04-15T22:44:15.991Z,12.30
2023-04-15T22:46:44.449Z,12.20
2023-04-15T22:49:12.957Z,12.20
2023-04-15T22:51:42.762Z,12.30
2023-04-15T22:54:11.240Z,12.30
2023-04-15T22:56:39.719Z,12.30
2023-04-15T22:59:08.428Z,12.20
2023-04-15T23:01:38.297Z,12.30
2023-04-15T23:04:10.097Z,12.20
2023-04-15T23:06:55.894Z,12.30
2023-04-15T23:09:24.253Z,12.30
2023-04-15T23:11:52.618Z,12.30
2023-04-15T23:14:21.094Z,12.30
2023-04-15T23:16:49.540Z,12.30
2023-04-15T23:19:17.884Z,12.20
2023-04-15T23:21:46.484Z,12.30
2023-04-15T23:24:16.349Z,12.20
2023-04-15T23:26:44.827Z,12.20
2023-04-15T23:29:13.234Z,12.20
2023-04-15T23:31:42.640Z,12.20
2023-04-15T23:34:11.054Z,12.20
2023-04-15T23:36:39.433Z,12.30
2023-04-15T23:39:07.991Z,12.30
2023-04-15T23:41:37.813Z,12.30
2023-04-15T23:44:06.370Z,12.30
2023-04-15T23:46:34.815Z,12.20
2023-04-15T23:49:03.230Z,12.20
2023-04-15T23:51:31.548Z,12.20
2023-04-15T23:54:00.217Z,12.20
2023-04-15T23:56:28.592Z,12.20
2023-04-15T23:58:58.343Z,12.10
